createdAt,value
2023-01-11T00:01:12.818Z,8.08
2023-01-11T00:03:41.260Z,8.12
2023-01-11T00:06:11.326Z,8.18
2023-01-11T00:08:40.207Z,8.20
2023-01-11T00:11:16.462Z,8.22
2023-01-11T00:13:46.316Z,8.28
2023-01-11T00:16:15.115Z,8.29
2023-01-11T00:18:43.732Z,8.33
2023-01-11T00:21:12.314Z,8.34
2023-01-11T00:23:40.829Z,8.35
2023-01-11T00:26:12.660Z,8.42
2023-01-11T00:28:42.734Z,8.45
2023-01-11T00:31:11.213Z,8.45
2023-01-11T00:33:39.699Z,8.58
2023-01-11T00:36:09.007Z,8.57
2023-01-11T00:38:51.274Z,8.60
2023-01-11T00:41:34.084Z,8.63
2023-01-11T00:44:21.958Z,8.66
2023-01-11T00:47:08.253Z,8.75
2023-01-11T00:49:36.919Z,8.83
2023-01-11T00:52:08.905Z,8.78
2023-01-11T00:54:37.584Z,8.75
2023-01-11T00:57:07.236Z,8.78
2023-01-11T00:59:39.214Z,8.81
2023-01-11T01:02:08.256Z,8.84
2023-01-11T01:04:36.854Z,8.79
2023-01-11T01:07:05.622Z,8.79
2023-01-11T01:09:34.136Z,8.82
2023-01-11T01:12:02.900Z,8.86
2023-01-11T01:14:33.025Z,8.85
2023-01-11T01:17:04.698Z,8.89
2023-01-11T01:19:36.269Z,8.99
2023-01-11T01:22:04.826Z,9.00
2023-01-11T01:24:33.890Z,9.08
2023-01-11T01:27:02.296Z,9.10
2023-01-11T01:29:30.599Z,9.13
2023-01-11T01:31:59.042Z,9.19
2023-01-11T01:34:28.818Z,9.27
2023-01-11T01:36:57.231Z,9.31
2023-01-11T01:39:25.531Z,9.30
2023-01-11T01:41:53.963Z,9.32
2023-01-11T01:45:02.420Z,9.34
2023-01-11T01:47:36.910Z,9.35
2023-01-11T01:50:12.828Z,9.37
2023-01-11T01:52:41.847Z,9.43
2023-01-11T01:55:18.066Z,9.51
2023-01-11T01:57:46.739Z,9.48
2023-01-11T02:00:15.537Z,9.57
2023-01-11T02:02:46.073Z,9.59
2023-01-11T02:05:17.669Z,9.59
2023-01-11T02:07:48.088Z,9.62
2023-01-11T02:10:18.545Z,9.66
2023-01-11T02:12:50.569Z,9.69
2023-01-11T02:15:21.039Z,9.64
2023-01-11T02:17:49.430Z,9.60
2023-01-11T02:20:32.794Z,9.35
2023-01-11T02:23:36.363Z,9.16
2023-01-11T02:26:38.914Z,9.00
2023-01-11T02:29:14.894Z,8.94
2023-01-11T02:31:49.855Z,8.93
2023-01-11T02:34:30.167Z,8.88
2023-01-11T02:37:09.428Z,8.77
2023-01-11T02:39:45.853Z,8.83
2023-01-11T02:42:48.154Z,8.84
2023-01-11T02:45:26.732Z,8.89
2023-01-11T02:48:00.175Z,8.92
2023-01-11T02:50:33.043Z,8.97
2023-01-11T02:53:08.834Z,9.03
2023-01-11T02:55:42.483Z,9.07
2023-01-11T02:58:13.497Z,9.09
2023-01-11T03:00:44.167Z,9.21
2023-01-11T03:03:16.522Z,9.20
2023-01-11T03:05:50.232Z,9.28
2023-01-11T03:08:31.547Z,9.43
2023-01-11T03:11:05.009Z,9.45
2023-01-11T03:13:47.864Z,9.38
2023-01-11T03:16:25.080Z,9.38
2023-01-11T03:19:01.035Z,9.36
2023-01-11T03:22:00.618Z,9.22
2023-01-11T03:24:33.579Z,9.06
2023-01-11T03:27:13.287Z,9.03
2023-01-11T03:29:50.768Z,9.00
2023-01-11T03:32:28.201Z,8.94
2023-01-11T03:35:05.799Z,8.97
2023-01-11T03:37:39.005Z,8.95
2023-01-11T03:40:11.575Z,8.84
2023-01-11T03:42:59.011Z,8.94
2023-01-11T03:45:28.832Z,9.01
2023-01-11T03:48:02.304Z,8.95
2023-01-11T03:50:34.407Z,8.85
2023-01-11T03:53:06.474Z,8.89
2023-01-11T03:55:39.416Z,8.88
2023-01-11T03:58:08.935Z,8.84
2023-01-11T04:00:38.469Z,8.83
2023-01-11T04:03:09.571Z,8.85
2023-01-11T04:05:43.588Z,8.84
2023-01-11T04:08:12.392Z,8.82
2023-01-11T04:10:40.800Z,8.84
2023-01-11T04:13:09.184Z,8.80
2023-01-11T04:15:37.925Z,8.83
2023-01-11T04:18:08.126Z,8.82
2023-01-11T04:20:38.769Z,8.79
2023-01-11T04:23:08.398Z,8.81
2023-01-11T04:25:36.907Z,8.82
2023-01-11T04:28:05.451Z,8.87
2023-01-11T04:30:33.799Z,8.96
2023-01-11T04:33:02.412Z,8.93
2023-01-11T04:35:32.162Z,8.92
2023-01-11T04:38:00.591Z,8.91
2023-01-11T04:40:28.982Z,8.95
2023-01-11T04:42:56.322Z,8.94
2023-01-11T04:45:24.726Z,8.94
2023-01-11T04:47:56.602Z,8.94
2023-01-11T04:50:25.301Z,8.90
2023-01-11T04:52:55.134Z,8.88
2023-01-11T04:55:23.476Z,8.84
2023-01-11T04:57:51.859Z,8.84
2023-01-11T05:00:20.748Z,8.85
2023-01-11T05:02:49.057Z,8.84
2023-01-11T05:05:17.407Z,8.86
2023-01-11T05:07:45.711Z,8.80
2023-01-11T05:10:15.414Z,8.87
2023-01-11T05:12:43.770Z,8.83
2023-01-11T05:15:12.636Z,8.78
2023-01-11T05:17:41.157Z,8.78
2023-01-11T05:20:11.378Z,8.79
2023-01-11T05:22:39.741Z,8.80
2023-01-11T05:25:08.977Z,8.83
2023-01-11T05:27:38.700Z,8.82
2023-01-11T05:30:08.456Z,8.85
2023-01-11T05:32:36.831Z,8.84
2023-01-11T05:35:05.564Z,8.81
2023-01-11T05:37:33.911Z,8.78
2023-01-11T05:40:02.446Z,8.83
2023-01-11T05:42:31.048Z,8.81
2023-01-11T05:45:18.041Z,8.84
2023-01-11T05:47:46.403Z,8.85
2023-01-11T05:50:14.913Z,8.86
2023-01-11T05:52:43.363Z,8.85
2023-01-11T05:55:11.772Z,8.81
2023-01-11T05:57:42.014Z,8.84
2023-01-11T06:00:14.051Z,8.83
2023-01-11T06:02:42.593Z,8.82
2023-01-11T06:05:11.238Z,8.84
2023-01-11T06:07:40.008Z,8.87
2023-01-11T06:10:09.941Z,8.81
2023-01-11T06:12:38.321Z,8.79
2023-01-11T06:15:08.280Z,8.84
2023-01-11T06:17:38.087Z,8.87
2023-01-11T06:20:08.044Z,8.90
2023-01-11T06:22:51.263Z,8.89
2023-01-11T06:25:25.304Z,8.88
2023-01-11T06:27:54.043Z,8.85
2023-01-11T06:30:25.628Z,8.85
2023-01-11T06:32:55.418Z,8.89
2023-01-11T06:35:23.936Z,8.86
2023-01-11T06:37:52.463Z,8.85
2023-01-11T06:40:20.901Z,8.83
2023-01-11T06:42:49.319Z,8.80
2023-01-11T06:45:17.952Z,8.80
2023-01-11T06:47:46.505Z,8.84
2023-01-11T06:50:16.914Z,8.84
2023-01-11T06:52:52.679Z,8.81
2023-01-11T06:55:21.365Z,8.81
2023-01-11T06:57:49.809Z,8.78
2023-01-11T07:00:19.538Z,8.72
2023-01-11T07:02:48.782Z,8.74
2023-01-11T07:05:19.463Z,8.75
2023-01-11T07:07:48.093Z,8.72
2023-01-11T07:10:17.503Z,8.61
2023-01-11T07:12:50.222Z,8.62
2023-01-11T07:15:19.066Z,8.53
2023-01-11T07:17:49.441Z,8.57
2023-01-11T07:20:19.521Z,8.62
2023-01-11T07:22:48.268Z,8.53
2023-01-11T07:25:16.735Z,8.59
2023-01-11T07:27:45.220Z,8.54
2023-01-11T07:30:14.466Z,8.58
2023-01-11T07:32:42.873Z,8.59
2023-01-11T07:35:11.324Z,8.46
2023-01-11T07:37:41.601Z,8.41
2023-01-11T07:40:11.463Z,8.49
2023-01-11T07:42:57.545Z,8.37
2023-01-11T07:45:31.589Z,8.33
2023-01-11T07:48:08.289Z,8.25
2023-01-11T07:50:37.829Z,8.29
2023-01-11T07:53:08.103Z,8.25
2023-01-11T07:55:37.739Z,8.17
2023-01-11T07:58:06.286Z,8.22
2023-01-11T08:00:34.644Z,8.23
2023-01-11T08:03:03.502Z,8.29
2023-01-11T08:05:32.050Z,8.32
2023-01-11T08:08:00.392Z,8.49
2023-01-11T08:10:30.715Z,8.47
2023-01-11T08:13:17.055Z,8.52
2023-01-11T08:15:45.479Z,8.52
2023-01-11T08:18:13.981Z,8.51
2023-01-11T08:20:42.351Z,8.51
2023-01-11T08:23:11.668Z,8.47
2023-01-11T08:25:41.309Z,8.42
2023-01-11T08:28:09.722Z,8.42
2023-01-11T08:30:38.699Z,8.47
2023-01-11T08:33:07.054Z,8.37
2023-01-11T08:35:39.476Z,8.42
2023-01-11T08:38:08.162Z,8.42
2023-01-11T08:40:36.838Z,8.37
2023-01-11T08:43:06.916Z,8.31
2023-01-11T08:45:35.278Z,8.29
2023-01-11T08:48:03.682Z,8.24
2023-01-11T08:50:32.049Z,8.20
2023-01-11T08:53:00.432Z,8.19
2023-01-11T08:55:30.662Z,8.19
2023-01-11T08:57:59.036Z,8.17
2023-01-11T09:00:28.986Z,8.12
2023-01-11T09:02:57.406Z,8.10
2023-01-11T09:05:25.756Z,8.06
2023-01-11T09:07:55.435Z,8.09
2023-01-11T09:10:26.827Z,8.01
2023-01-11T09:12:55.379Z,8.08
2023-01-11T09:15:24.590Z,7.99
2023-01-11T09:17:54.570Z,7.97
2023-01-11T09:20:23.307Z,7.90
2023-01-11T09:22:53.875Z,7.88
2023-01-11T09:25:22.497Z,7.95
2023-01-11T09:27:52.387Z,7.92
2023-01-11T09:30:23.456Z,7.96
2023-01-11T09:32:54.985Z,7.88
2023-01-11T09:35:23.373Z,7.90
2023-01-11T09:37:54.337Z,7.83
2023-01-11T09:40:30.911Z,7.81
2023-01-11T09:43:03.984Z,7.78
2023-01-11T09:45:33.869Z,7.77
2023-01-11T09:48:12.505Z,7.77
2023-01-11T09:50:43.887Z,7.71
2023-01-11T09:53:18.956Z,7.78
2023-01-11T09:55:52.176Z,7.77
2023-01-11T09:58:38.493Z,7.78
2023-01-11T10:01:14.682Z,7.85
2023-01-11T10:04:16.353Z,7.86
2023-01-11T10:06:59.156Z,7.80
2023-01-11T10:18:26.622Z,7.70
2023-01-11T10:19:10.424Z,7.77
2023-01-11T10:21:38.873Z,7.69
2023-01-11T10:24:14.712Z,7.61
2023-01-11T10:26:43.923Z,7.56
2023-01-11T10:29:38.527Z,7.45
2023-01-11T10:32:34.584Z,7.36
2023-01-11T10:35:41.110Z,7.52
2023-01-11T10:38:43.314Z,7.69
2023-01-11T10:41:25.802Z,7.95
2023-01-11T10:44:04.996Z,8.47
2023-01-11T10:46:39.511Z,8.90
2023-01-11T10:49:37.185Z,9.31
2023-01-11T10:52:18.938Z,9.51
2023-01-11T10:54:54.622Z,9.34
2023-01-11T10:57:37.377Z,8.93
2023-01-11T11:00:21.261Z,8.62
2023-01-11T11:03:05.237Z,8.62
2023-01-11T11:05:43.839Z,9.02
2023-01-11T11:08:18.424Z,9.61
2023-01-11T11:10:56.949Z,9.07
2023-01-11T11:13:38.887Z,8.66
2023-01-11T11:16:15.842Z,8.62
2023-01-11T11:18:44.692Z,8.94
2023-01-11T11:21:22.248Z,8.95
2023-01-11T11:23:57.725Z,9.48
2023-01-11T11:26:31.858Z,9.08
2023-01-11T11:29:02.601Z,8.56
2023-01-11T11:31:32.384Z,9.29
2023-01-11T11:34:06.942Z,10.41
2023-01-11T11:36:43.628Z,11.31
2023-01-11T11:39:20.353Z,11.47
2023-01-11T11:41:52.032Z,10.90
2023-01-11T11:44:24.298Z,10.26
2023-01-11T11:47:00.738Z,9.62
2023-01-11T11:49:30.274Z,9.38
2023-01-11T11:52:00.549Z,9.61
2023-01-11T11:54:32.599Z,9.28
2023-01-11T11:57:15.464Z,9.17
2023-01-11T11:59:47.395Z,9.01
2023-01-11T12:02:25.515Z,8.83
2023-01-11T12:04:55.713Z,8.76
2023-01-11T12:07:27.136Z,8.56
2023-01-11T12:10:00.905Z,8.49
2023-01-11T12:12:33.681Z,8.33
2023-01-11T12:15:24.870Z,8.62
2023-01-11T12:17:54.436Z,8.60
2023-01-11T12:20:32.020Z,8.71
2023-01-11T12:23:14.741Z,9.40
2023-01-11T12:25:54.309Z,10.54
2023-01-11T12:28:30.933Z,11.89
2023-01-11T12:31:08.836Z,13.41
2023-01-11T12:33:45.489Z,12.42
2023-01-11T12:36:20.440Z,11.44
2023-01-11T12:39:00.533Z,10.54
2023-01-11T12:42:02.614Z,9.98
2023-01-11T12:44:44.675Z,9.73
2023-01-11T12:47:42.404Z,9.37
2023-01-11T12:50:18.524Z,9.93
2023-01-11T12:52:58.525Z,9.82
2023-01-11T12:55:38.594Z,9.61
2023-01-11T12:58:15.055Z,9.30
2023-01-11T13:01:07.481Z,9.06
2023-01-11T13:04:14.892Z,8.85
2023-01-11T13:06:48.911Z,8.84
2023-01-11T13:09:29.551Z,9.12
2023-01-11T13:12:05.100Z,9.60
2023-01-11T13:14:40.245Z,9.52
2023-01-11T13:17:21.633Z,9.47
2023-01-11T13:20:03.602Z,9.36
2023-01-11T13:22:36.897Z,9.33
2023-01-11T13:25:17.856Z,9.26
2023-01-11T13:27:48.113Z,9.21
2023-01-11T13:30:19.854Z,9.10
2023-01-11T13:32:55.946Z,9.16
2023-01-11T13:35:35.134Z,9.19
2023-01-11T13:38:14.653Z,9.14
2023-01-11T13:40:49.617Z,9.23
2023-01-11T13:43:22.958Z,9.08
2023-01-11T13:45:55.548Z,9.01
2023-01-11T13:48:28.565Z,9.08
2023-01-11T13:51:02.694Z,8.95
2023-01-11T13:53:40.310Z,9.08
2023-01-11T13:56:15.667Z,9.15
2023-01-11T13:59:00.267Z,10.50
2023-01-11T14:01:41.262Z,11.19
2023-01-11T14:04:16.836Z,11.65
2023-01-11T14:06:56.262Z,10.95
2023-01-11T14:09:50.737Z,10.18
2023-01-11T14:12:32.237Z,9.57
2023-01-11T14:15:13.184Z,9.38
2023-01-11T14:18:05.521Z,10.27
2023-01-11T14:20:51.930Z,11.38
2023-01-11T14:23:23.019Z,11.43
2023-01-11T14:26:09.612Z,10.59
2023-01-11T14:29:01.152Z,9.93
2023-01-11T14:31:45.783Z,9.44
2023-01-11T14:34:39.129Z,9.25
2023-01-11T14:37:26.745Z,8.94
2023-01-11T14:40:42.622Z,8.85
2023-01-11T14:43:32.637Z,8.72
2023-01-11T14:46:44.139Z,8.73
2023-01-11T14:49:24.755Z,8.72
2023-01-11T14:51:57.431Z,8.69
2023-01-11T14:57:38.006Z,8.53
2023-01-11T15:00:47.994Z,8.34
2023-01-11T15:03:53.606Z,8.21
2023-01-11T15:06:23.493Z,8.13
2023-01-11T15:08:54.872Z,8.07
2023-01-11T15:11:42.859Z,8.05
2023-01-11T15:14:27.801Z,8.09
2023-01-11T15:17:19.783Z,8.18
2023-01-11T15:19:50.103Z,8.20
2023-01-11T15:22:25.459Z,8.21
2023-01-11T15:25:22.806Z,8.16
2023-01-11T15:27:53.693Z,8.11
2023-01-11T15:30:51.837Z,7.97
2023-01-11T15:33:30.516Z,7.89
2023-01-11T15:36:03.739Z,7.82
2023-01-11T15:38:42.410Z,7.82
2023-01-11T15:41:34.350Z,7.82
2023-01-11T15:44:22.111Z,7.79
2023-01-11T15:47:23.291Z,7.84
2023-01-11T15:50:16.629Z,7.71
2023-01-11T15:53:24.940Z,7.64
2023-01-11T15:56:22.875Z,7.69
2023-01-11T15:59:17.901Z,7.60
2023-01-11T16:02:25.072Z,7.60
2023-01-11T16:04:58.153Z,7.51
2023-01-11T16:07:40.283Z,7.57
2023-01-11T16:10:27.553Z,7.55
2023-01-11T16:13:28.189Z,7.57
2023-01-11T16:16:12.029Z,7.52
2023-01-11T16:18:44.861Z,7.39
2023-01-11T16:21:24.965Z,7.22
2023-01-11T16:23:56.288Z,7.15
2023-01-11T16:26:25.143Z,7.16
2023-01-11T16:28:57.372Z,6.99
2023-01-11T16:31:47.644Z,6.93
2023-01-11T16:34:19.178Z,6.82
2023-01-11T16:36:49.136Z,6.70
2023-01-11T16:39:22.794Z,6.72
2023-01-11T16:41:56.501Z,6.65
2023-01-11T16:44:34.874Z,6.57
2023-01-11T16:47:12.353Z,6.53
2023-01-11T16:49:42.943Z,6.48
2023-01-11T16:52:39.892Z,6.55
2023-01-11T16:55:18.854Z,6.50
2023-01-11T16:58:00.849Z,6.51
2023-01-11T17:00:35.679Z,6.51
2023-01-11T17:03:31.063Z,6.52
2023-01-11T17:06:18.083Z,6.54
2023-01-11T17:08:49.494Z,6.53
2023-01-11T17:11:26.614Z,6.57
2023-01-11T17:14:40.499Z,6.67
2023-01-11T17:17:11.777Z,6.58
2023-01-11T17:19:46.779Z,6.50
2023-01-11T17:22:21.645Z,6.47
2023-01-11T17:24:53.960Z,6.40
2023-01-11T17:27:26.602Z,6.35
2023-01-11T17:29:57.829Z,6.36
2023-01-11T17:32:34.536Z,6.36
2023-01-11T17:35:07.084Z,6.28
2023-01-11T17:37:35.778Z,6.30
2023-01-11T17:40:05.979Z,6.35
2023-01-11T17:42:52.044Z,6.33
2023-01-11T17:45:21.559Z,6.40
2023-01-11T17:47:51.568Z,6.41
2023-01-11T17:50:28.158Z,6.51
2023-01-11T17:53:08.043Z,6.49
2023-01-11T17:55:36.883Z,6.44
2023-01-11T17:58:21.533Z,6.41
2023-01-11T18:01:16.041Z,6.47
2023-01-11T18:03:46.547Z,6.52
2023-01-11T18:06:32.518Z,6.39
2023-01-11T18:09:03.727Z,6.39
2023-01-11T18:11:35.608Z,6.23
2023-01-11T18:14:08.248Z,6.19
2023-01-11T18:16:37.816Z,6.16
2023-01-11T18:19:25.528Z,6.17
2023-01-11T18:21:55.545Z,6.16
2023-01-11T18:24:53.754Z,6.09
2023-01-11T18:27:31.522Z,6.06
2023-01-11T18:30:02.755Z,6.04
2023-01-11T18:32:36.463Z,6.01
2023-01-11T18:35:05.820Z,6.07
2023-01-11T18:37:35.645Z,6.18
2023-01-11T18:40:04.301Z,6.25
2023-01-11T18:42:33.869Z,6.27
2023-01-11T18:45:02.291Z,6.22
2023-01-11T18:47:30.703Z,6.24
2023-01-11T18:49:59.701Z,6.17
2023-01-11T18:52:31.616Z,6.14
2023-01-11T18:55:01.525Z,6.21
2023-01-11T18:57:30.485Z,6.23
2023-01-11T18:59:59.088Z,6.20
2023-01-11T19:02:29.215Z,6.17
2023-01-11T19:04:58.110Z,6.13
2023-01-11T19:07:29.303Z,6.04
2023-01-11T19:09:59.286Z,6.19
2023-01-11T19:12:29.216Z,6.26
2023-01-11T19:14:59.132Z,6.31
2023-01-11T19:17:28.522Z,6.26
2023-01-11T19:19:56.993Z,6.21
2023-01-11T19:22:26.735Z,6.24
2023-01-11T19:24:55.661Z,6.21
2023-01-11T19:27:24.230Z,6.24
2023-01-11T19:29:53.979Z,6.31
2023-01-11T19:32:25.014Z,6.33
2023-01-11T19:34:57.868Z,6.34
2023-01-11T19:38:10.744Z,6.37
2023-01-11T19:40:53.109Z,6.34
2023-01-11T19:43:21.528Z,6.46
2023-01-11T19:45:57.639Z,6.44
2023-01-11T19:48:26.406Z,6.47
2023-01-11T19:51:02.010Z,6.54
2023-01-11T19:53:30.593Z,6.55
2023-01-11T19:56:01.501Z,6.52
2023-01-11T19:58:30.211Z,6.49
2023-01-11T20:01:00.509Z,6.44
2023-01-11T20:03:30.200Z,6.50
2023-01-11T20:06:04.775Z,6.40
2023-01-11T20:08:36.007Z,6.45
2023-01-11T20:11:08.574Z,6.49
2023-01-11T20:13:37.243Z,6.56
2023-01-11T20:16:09.197Z,6.51
2023-01-11T20:18:38.138Z,6.64
2023-01-11T20:21:06.924Z,6.63
2023-01-11T20:23:35.400Z,6.68
2023-01-11T20:26:06.366Z,6.76
2023-01-11T20:28:35.141Z,6.78
2023-01-11T20:31:08.869Z,6.77
2023-01-11T20:33:37.595Z,6.83
2023-01-11T20:36:14.006Z,6.90
2023-01-11T20:38:42.957Z,6.90
2023-01-11T20:41:12.830Z,6.95
2023-01-11T20:43:42.378Z,6.96
2023-01-11T20:46:12.172Z,7.00
2023-01-11T20:48:40.712Z,7.03
2023-01-11T20:51:09.092Z,7.04
2023-01-11T20:53:37.529Z,7.10
2023-01-11T20:56:06.161Z,7.15
2023-01-11T20:58:34.607Z,7.12
2023-01-11T21:01:04.751Z,7.08
2023-01-11T21:03:34.639Z,6.99
2023-01-11T21:06:03.706Z,6.95
2023-01-11T21:08:32.684Z,6.93
2023-01-11T21:11:05.518Z,6.90
2023-01-11T21:13:34.114Z,6.94
2023-01-11T21:16:07.385Z,7.04
2023-01-11T21:18:37.234Z,7.06
2023-01-11T21:21:06.361Z,7.01
2023-01-11T21:23:34.774Z,6.83
2023-01-11T21:26:04.813Z,6.67
2023-01-11T21:28:33.271Z,6.57
2023-01-11T21:31:04.242Z,6.46
2023-01-11T21:33:32.885Z,6.40
2023-01-11T21:36:05.076Z,6.35
2023-01-11T21:38:34.721Z,6.28
2023-01-11T21:41:07.380Z,6.27
2023-01-11T21:43:36.406Z,6.31
2023-01-11T21:46:06.435Z,6.30
2023-01-11T21:48:35.100Z,6.28
2023-01-11T21:51:09.070Z,6.27
2023-01-11T21:53:37.791Z,6.27
2023-01-11T21:56:07.851Z,6.27
2023-01-11T21:58:36.649Z,6.26
2023-01-11T22:01:10.902Z,6.25
2023-01-11T22:03:42.032Z,6.25
2023-01-11T22:06:12.260Z,6.29
2023-01-11T22:08:41.525Z,6.30
2023-01-11T22:11:10.900Z,6.28
2023-01-11T22:13:39.275Z,6.28
2023-01-11T22:16:10.104Z,6.32
2023-01-11T22:18:40.538Z,6.25
2023-01-11T22:21:11.711Z,6.24
2023-01-11T22:23:40.892Z,6.22
2023-01-11T22:26:12.339Z,6.20
2023-01-11T22:28:55.335Z,6.24
2023-01-11T22:31:24.621Z,6.25
2023-01-11T22:33:53.343Z,6.24
2023-01-11T22:36:24.159Z,6.20
2023-01-11T22:38:52.837Z,6.21
2023-01-11T22:41:21.829Z,6.31
2023-01-11T22:43:50.563Z,6.30
2023-01-11T22:46:20.652Z,6.26
2023-01-11T22:48:49.406Z,6.37
2023-01-11T22:51:19.924Z,6.34
2023-01-11T22:53:51.117Z,6.28
2023-01-11T22:56:22.104Z,6.30
2023-01-11T22:58:51.069Z,6.31
2023-01-11T23:01:22.055Z,6.35
2023-01-11T23:03:51.678Z,6.24
2023-01-11T23:06:21.853Z,6.23
2023-01-11T23:08:51.860Z,6.28
2023-01-11T23:11:35.827Z,6.24
2023-01-11T23:14:05.588Z,6.25
2023-01-11T23:16:34.418Z,6.17
2023-01-11T23:19:03.243Z,6.17
2023-01-11T23:21:31.780Z,6.16
2023-01-11T23:24:03.485Z,6.12
2023-01-11T23:26:31.841Z,6.10
2023-01-11T23:29:00.316Z,6.12
2023-01-11T23:31:29.335Z,6.14
2023-01-11T23:33:59.593Z,6.09
2023-01-11T23:36:30.272Z,6.09
2023-01-11T23:38:59.634Z,6.06
2023-01-11T23:41:46.720Z,6.03
2023-01-11T23:44:16.715Z,6.01
2023-01-11T23:47:03.629Z,6.04
2023-01-11T23:49:33.271Z,6.05
2023-01-11T23:52:02.156Z,5.98
2023-01-11T23:54:32.496Z,5.97
2023-01-11T23:57:03.550Z,6.05
2023-01-11T23:59:32.355Z,6.06
